Terminal Aerodrome Forecast
Issued by NWS

Home | Current Version | Previous Version | Text Only | Print | Product List | Glossary On
Versions: 1 2 3 4 5 6 7 8 9 10 11 12
000
FTUS45 KGJT 250543
TAFDRO
TAF
KDRO 250543Z 2506/2606 35007KT P6SM SCT120 WS020/27030KT
     FM251400 23008KT P6SM SCT110
     FM251600 26022G33KT P6SM BKN100
     FM260400 27009KT P6SM BKN100=

USA.gov is the U.S. government's official web portal to all federal, state and local government web resources and services.